sensor_id;sensor_type;location;lat;lon;timestamp;P1;durP1;ratioP1;P2;durP2;ratioP2
45650;SDS011;31365;48.858;8.530;2024-01-16T00:00:23;3.70;;;2.90;;
45650;SDS011;31365;48.858;8.530;2024-01-16T00:02:51;3.87;;;3.23;;
45650;SDS011;31365;48.858;8.530;2024-01-16T00:05:19;4.27;;;2.80;;
45650;SDS011;31365;48.858;8.530;2024-01-16T00:07:47;3.57;;;2.97;;
45650;SDS011;31365;48.858;8.530;2024-01-16T00:10:15;4.90;;;2.87;;
45650;SDS011;31365;48.858;8.530;2024-01-16T00:12:44;3.87;;;3.10;;
45650;SDS011;31365;48.858;8.530;2024-01-16T00:15:13;5.97;;;3.77;;
45650;SDS011;31365;48.858;8.530;2024-01-16T00:17:42;6.30;;;3.80;;
45650;SDS011;31365;48.858;8.530;2024-01-16T00:20:10;3.30;;;3.00;;
45650;SDS011;31365;48.858;8.530;2024-01-16T00:22:39;4.77;;;3.77;;
45650;SDS011;31365;48.858;8.530;2024-01-16T00:25:07;4.57;;;3.00;;
45650;SDS011;31365;48.858;8.530;2024-01-16T00:27:36;5.20;;;3.27;;
45650;SDS011;31365;48.858;8.530;2024-01-16T00:30:05;5.77;;;4.00;;
45650;SDS011;31365;48.858;8.530;2024-01-16T00:32:37;5.00;;;3.40;;
45650;SDS011;31365;48.858;8.530;2024-01-16T00:35:07;4.43;;;3.50;;
45650;SDS011;31365;48.858;8.530;2024-01-16T00:37:36;3.90;;;3.43;;
45650;SDS011;31365;48.858;8.530;2024-01-16T00:40:06;3.87;;;3.07;;
45650;SDS011;31365;48.858;8.530;2024-01-16T00:42:36;2.93;;;2.63;;
45650;SDS011;31365;48.858;8.530;2024-01-16T00:45:05;3.53;;;3.10;;
45650;SDS011;31365;48.858;8.530;2024-01-16T00:47:33;6.10;;;3.93;;
45650;SDS011;31365;48.858;8.530;2024-01-16T00:50:04;5.87;;;4.03;;
45650;SDS011;31365;48.858;8.530;2024-01-16T00:52:33;5.17;;;3.73;;
45650;SDS011;31365;48.858;8.530;2024-01-16T00:55:02;5.20;;;3.80;;
45650;SDS011;31365;48.858;8.530;2024-01-16T00:57:31;6.43;;;3.90;;
45650;SDS011;31365;48.858;8.530;2024-01-16T00:59:59;4.43;;;3.70;;
45650;SDS011;31365;48.858;8.530;2024-01-16T01:02:27;4.27;;;3.63;;
45650;SDS011;31365;48.858;8.530;2024-01-16T01:04:56;5.87;;;4.03;;
45650;SDS011;31365;48.858;8.530;2024-01-16T01:07:25;5.67;;;4.00;;
45650;SDS011;31365;48.858;8.530;2024-01-16T01:09:53;4.80;;;3.63;;
45650;SDS011;31365;48.858;8.530;2024-01-16T01:12:21;7.53;;;3.90;;
45650;SDS011;31365;48.858;8.530;2024-01-16T01:14:50;5.33;;;4.03;;
45650;SDS011;31365;48.858;8.530;2024-01-16T01:17:18;5.80;;;3.97;;
45650;SDS011;31365;48.858;8.530;2024-01-16T01:19:47;5.10;;;3.93;;
45650;SDS011;31365;48.858;8.530;2024-01-16T01:22:15;3.67;;;3.00;;
45650;SDS011;31365;48.858;8.530;2024-01-16T01:24:44;4.20;;;3.27;;
45650;SDS011;31365;48.858;8.530;2024-01-16T01:27:12;3.30;;;2.93;;
45650;SDS011;31365;48.858;8.530;2024-01-16T01:29:41;4.20;;;3.10;;
45650;SDS011;31365;48.858;8.530;2024-01-16T01:32:09;3.80;;;3.27;;
45650;SDS011;31365;48.858;8.530;2024-01-16T01:34:37;6.87;;;4.00;;
45650;SDS011;31365;48.858;8.530;2024-01-16T01:37:05;5.00;;;3.17;;
45650;SDS011;31365;48.858;8.530;2024-01-16T01:39:34;3.63;;;3.33;;
45650;SDS011;31365;48.858;8.530;2024-01-16T01:42:03;3.93;;;3.30;;
45650;SDS011;31365;48.858;8.530;2024-01-16T01:44:32;4.37;;;3.60;;
45650;SDS011;31365;48.858;8.530;2024-01-16T01:47:00;5.13;;;3.53;;
45650;SDS011;31365;48.858;8.530;2024-01-16T01:49:30;4.97;;;3.50;;
45650;SDS011;31365;48.858;8.530;2024-01-16T01:52:00;6.37;;;3.03;;
45650;SDS011;31365;48.858;8.530;2024-01-16T01:54:28;5.00;;;3.03;;
45650;SDS011;31365;48.858;8.530;2024-01-16T01:56:58;4.27;;;3.37;;
45650;SDS011;31365;48.858;8.530;2024-01-16T01:59:28;6.33;;;3.80;;
45650;SDS011;31365;48.858;8.530;2024-01-16T02:01:58;4.40;;;3.53;;
45650;SDS011;31365;48.858;8.530;2024-01-16T02:04:28;3.90;;;3.23;;
45650;SDS011;31365;48.858;8.530;2024-01-16T02:06:58;5.23;;;3.67;;
45650;SDS011;31365;48.858;8.530;2024-01-16T02:09:27;4.13;;;3.30;;
45650;SDS011;31365;48.858;8.530;2024-01-16T02:11:56;4.07;;;3.40;;
45650;SDS011;31365;48.858;8.530;2024-01-16T02:14:24;3.70;;;3.20;;
45650;SDS011;31365;48.858;8.530;2024-01-16T02:16:54;7.47;;;3.20;;
45650;SDS011;31365;48.858;8.530;2024-01-16T02:19:23;4.03;;;2.90;;
45650;SDS011;31365;48.858;8.530;2024-01-16T02:21:53;4.40;;;2.83;;
45650;SDS011;31365;48.858;8.530;2024-01-16T02:24:28;3.83;;;3.17;;
45650;SDS011;31365;48.858;8.530;2024-01-16T02:26:57;5.40;;;3.17;;
45650;SDS011;31365;48.858;8.530;2024-01-16T02:29:26;4.10;;;2.97;;
45650;SDS011;31365;48.858;8.530;2024-01-16T02:31:54;3.97;;;3.30;;
45650;SDS011;31365;48.858;8.530;2024-01-16T02:34:22;7.43;;;3.43;;
45650;SDS011;31365;48.858;8.530;2024-01-16T02:36:50;3.60;;;3.03;;
45650;SDS011;31365;48.858;8.530;2024-01-16T02:39:18;4.07;;;3.07;;
45650;SDS011;31365;48.858;8.530;2024-01-16T02:41:48;4.67;;;2.93;;
45650;SDS011;31365;48.858;8.530;2024-01-16T02:44:17;3.77;;;2.93;;
45650;SDS011;31365;48.858;8.530;2024-01-16T02:46:45;3.43;;;2.63;;
45650;SDS011;31365;48.858;8.530;2024-01-16T02:49:13;3.93;;;3.00;;
45650;SDS011;31365;48.858;8.530;2024-01-16T02:51:42;5.87;;;3.03;;
45650;SDS011;31365;48.858;8.530;2024-01-16T02:54:10;2.80;;;2.60;;
45650;SDS011;31365;48.858;8.530;2024-01-16T02:56:38;3.70;;;2.87;;
45650;SDS011;31365;48.858;8.530;2024-01-16T02:59:08;3.13;;;2.60;;
45650;SDS011;31365;48.858;8.530;2024-01-16T03:01:37;3.47;;;2.63;;
45650;SDS011;31365;48.858;8.530;2024-01-16T03:04:05;4.03;;;3.30;;
45650;SDS011;31365;48.858;8.530;2024-01-16T03:06:33;3.83;;;2.90;;
45650;SDS011;31365;48.858;8.530;2024-01-16T03:09:02;4.60;;;2.80;;
45650;SDS011;31365;48.858;8.530;2024-01-16T03:11:31;3.70;;;3.00;;
45650;SDS011;31365;48.858;8.530;2024-01-16T03:13:59;3.20;;;2.60;;
45650;SDS011;31365;48.858;8.530;2024-01-16T03:16:29;4.63;;;3.00;;
45650;SDS011;31365;48.858;8.530;2024-01-16T03:18:58;4.77;;;2.63;;
45650;SDS011;31365;48.858;8.530;2024-01-16T03:21:27;3.33;;;2.80;;
45650;SDS011;31365;48.858;8.530;2024-01-16T03:23:55;4.17;;;2.93;;
45650;SDS011;31365;48.858;8.530;2024-01-16T03:26:23;3.30;;;2.70;;
45650;SDS011;31365;48.858;8.530;2024-01-16T03:28:51;3.37;;;3.00;;
45650;SDS011;31365;48.858;8.530;2024-01-16T03:31:20;4.73;;;3.57;;
45650;SDS011;31365;48.858;8.530;2024-01-16T03:33:50;3.37;;;3.07;;
45650;SDS011;31365;48.858;8.530;2024-01-16T03:36:18;5.67;;;2.87;;
45650;SDS011;31365;48.858;8.530;2024-01-16T03:38:46;6.03;;;3.03;;
45650;SDS011;31365;48.858;8.530;2024-01-16T03:41:15;5.30;;;3.13;;
45650;SDS011;31365;48.858;8.530;2024-01-16T03:43:43;3.83;;;2.80;;
45650;SDS011;31365;48.858;8.530;2024-01-16T03:46:11;5.17;;;2.77;;
45650;SDS011;31365;48.858;8.530;2024-01-16T03:48:39;4.73;;;2.67;;
45650;SDS011;31365;48.858;8.530;2024-01-16T03:51:10;4.87;;;2.90;;
45650;SDS011;31365;48.858;8.530;2024-01-16T03:53:41;3.70;;;2.70;;
45650;SDS011;31365;48.858;8.530;2024-01-16T03:56:10;4.73;;;2.67;;
45650;SDS011;31365;48.858;8.530;2024-01-16T03:58:39;4.10;;;2.70;;
45650;SDS011;31365;48.858;8.530;2024-01-16T04:01:08;4.23;;;2.67;;
45650;SDS011;31365;48.858;8.530;2024-01-16T04:03:37;3.00;;;2.63;;
45650;SDS011;31365;48.858;8.530;2024-01-16T04:06:15;4.30;;;2.83;;
45650;SDS011;31365;48.858;8.530;2024-01-16T04:08:44;3.03;;;2.73;;
45650;SDS011;31365;48.858;8.530;2024-01-16T04:11:13;5.00;;;2.80;;
45650;SDS011;31365;48.858;8.530;2024-01-16T04:13:42;4.60;;;2.60;;
45650;SDS011;31365;48.858;8.530;2024-01-16T04:16:11;7.10;;;2.90;;
45650;SDS011;31365;48.858;8.530;2024-01-16T04:18:41;3.80;;;2.70;;
45650;SDS011;31365;48.858;8.530;2024-01-16T04:21:11;4.73;;;3.20;;
45650;SDS011;31365;48.858;8.530;2024-01-16T04:23:43;4.23;;;3.20;;
45650;SDS011;31365;48.858;8.530;2024-01-16T04:26:12;3.87;;;3.40;;
45650;SDS011;31365;48.858;8.530;2024-01-16T04:28:40;3.67;;;3.03;;
45650;SDS011;31365;48.858;8.530;2024-01-16T04:31:09;5.63;;;4.30;;
45650;SDS011;31365;48.858;8.530;2024-01-16T04:33:38;5.00;;;3.57;;
45650;SDS011;31365;48.858;8.530;2024-01-16T04:36:08;5.70;;;3.93;;
45650;SDS011;31365;48.858;8.530;2024-01-16T04:38:36;3.87;;;3.47;;
45650;SDS011;31365;48.858;8.530;2024-01-16T04:41:06;5.70;;;3.47;;
45650;SDS011;31365;48.858;8.530;2024-01-16T04:43:35;3.57;;;3.27;;
45650;SDS011;31365;48.858;8.530;2024-01-16T04:46:03;5.83;;;4.20;;
45650;SDS011;31365;48.858;8.530;2024-01-16T04:48:31;7.07;;;4.13;;
45650;SDS011;31365;48.858;8.530;2024-01-16T04:51:00;5.73;;;3.73;;
45650;SDS011;31365;48.858;8.530;2024-01-16T04:53:29;3.80;;;3.17;;
45650;SDS011;31365;48.858;8.530;2024-01-16T04:55:57;4.70;;;3.33;;
45650;SDS011;31365;48.858;8.530;2024-01-16T04:58:27;5.37;;;3.50;;
45650;SDS011;31365;48.858;8.530;2024-01-16T05:00:56;5.40;;;3.43;;
45650;SDS011;31365;48.858;8.530;2024-01-16T05:03:24;3.00;;;2.40;;
45650;SDS011;31365;48.858;8.530;2024-01-16T05:05:52;4.70;;;3.33;;
45650;SDS011;31365;48.858;8.530;2024-01-16T05:08:22;5.73;;;3.17;;
45650;SDS011;31365;48.858;8.530;2024-01-16T05:10:51;6.83;;;4.43;;
45650;SDS011;31365;48.858;8.530;2024-01-16T05:13:19;6.27;;;3.47;;
45650;SDS011;31365;48.858;8.530;2024-01-16T05:15:48;7.17;;;5.23;;
45650;SDS011;31365;48.858;8.530;2024-01-16T05:18:17;13.50;;;8.43;;
45650;SDS011;31365;48.858;8.530;2024-01-16T05:20:45;13.80;;;9.13;;
45650;SDS011;31365;48.858;8.530;2024-01-16T05:23:14;13.00;;;8.97;;
45650;SDS011;31365;48.858;8.530;2024-01-16T05:25:42;12.80;;;9.07;;
45650;SDS011;31365;48.858;8.530;2024-01-16T05:28:10;10.63;;;7.80;;
45650;SDS011;31365;48.858;8.530;2024-01-16T05:30:39;11.50;;;8.93;;
45650;SDS011;31365;48.858;8.530;2024-01-16T05:33:08;11.30;;;8.53;;
45650;SDS011;31365;48.858;8.530;2024-01-16T05:35:37;13.93;;;10.60;;
45650;SDS011;31365;48.858;8.530;2024-01-16T05:38:05;14.37;;;9.90;;
45650;SDS011;31365;48.858;8.530;2024-01-16T05:40:33;13.87;;;9.13;;
45650;SDS011;31365;48.858;8.530;2024-01-16T05:43:02;10.30;;;7.03;;
45650;SDS011;31365;48.858;8.530;2024-01-16T05:45:30;9.83;;;6.20;;
45650;SDS011;31365;48.858;8.530;2024-01-16T05:47:59;11.60;;;8.33;;
45650;SDS011;31365;48.858;8.530;2024-01-16T05:50:29;15.93;;;11.57;;
45650;SDS011;31365;48.858;8.530;2024-01-16T05:52:57;8.97;;;7.73;;
45650;SDS011;31365;48.858;8.530;2024-01-16T05:55:26;11.07;;;9.87;;
45650;SDS011;31365;48.858;8.530;2024-01-16T05:57:55;6.73;;;5.80;;
45650;SDS011;31365;48.858;8.530;2024-01-16T06:00:23;6.97;;;6.00;;
45650;SDS011;31365;48.858;8.530;2024-01-16T06:02:52;9.57;;;6.40;;
45650;SDS011;31365;48.858;8.530;2024-01-16T06:05:21;6.83;;;5.07;;
45650;SDS011;31365;48.858;8.530;2024-01-16T06:07:51;5.43;;;4.93;;
45650;SDS011;31365;48.858;8.530;2024-01-16T06:10:19;5.67;;;4.50;;
45650;SDS011;31365;48.858;8.530;2024-01-16T06:12:48;6.57;;;4.03;;
45650;SDS011;31365;48.858;8.530;2024-01-16T06:15:16;5.40;;;4.40;;
45650;SDS011;31365;48.858;8.530;2024-01-16T06:17:44;5.13;;;3.33;;
45650;SDS011;31365;48.858;8.530;2024-01-16T06:20:13;4.37;;;3.27;;
45650;SDS011;31365;48.858;8.530;2024-01-16T06:22:42;3.23;;;2.87;;
45650;SDS011;31365;48.858;8.530;2024-01-16T06:25:11;4.10;;;2.37;;
45650;SDS011;31365;48.858;8.530;2024-01-16T06:27:40;3.43;;;2.83;;
45650;SDS011;31365;48.858;8.530;2024-01-16T06:30:08;5.07;;;3.10;;
45650;SDS011;31365;48.858;8.530;2024-01-16T06:32:38;4.63;;;2.70;;
45650;SDS011;31365;48.858;8.530;2024-01-16T06:35:07;5.20;;;3.33;;
45650;SDS011;31365;48.858;8.530;2024-01-16T06:37:36;3.93;;;2.77;;
45650;SDS011;31365;48.858;8.530;2024-01-16T06:40:04;3.83;;;3.40;;
45650;SDS011;31365;48.858;8.530;2024-01-16T06:42:35;5.87;;;3.70;;
45650;SDS011;31365;48.858;8.530;2024-01-16T06:45:04;4.67;;;3.60;;
45650;SDS011;31365;48.858;8.530;2024-01-16T06:47:33;4.43;;;4.00;;
45650;SDS011;31365;48.858;8.530;2024-01-16T06:50:01;5.60;;;4.10;;
45650;SDS011;31365;48.858;8.530;2024-01-16T06:52:30;8.43;;;5.80;;
45650;SDS011;31365;48.858;8.530;2024-01-16T06:54:58;11.37;;;7.00;;
45650;SDS011;31365;48.858;8.530;2024-01-16T06:57:26;10.93;;;7.73;;
45650;SDS011;31365;48.858;8.530;2024-01-16T06:59:56;9.93;;;6.40;;
45650;SDS011;31365;48.858;8.530;2024-01-16T07:02:24;6.27;;;4.20;;
45650;SDS011;31365;48.858;8.530;2024-01-16T07:04:53;6.70;;;4.87;;
45650;SDS011;31365;48.858;8.530;2024-01-16T07:07:24;6.47;;;4.80;;
45650;SDS011;31365;48.858;8.530;2024-01-16T07:09:52;7.20;;;4.50;;
45650;SDS011;31365;48.858;8.530;2024-01-16T07:12:21;5.03;;;3.60;;
45650;SDS011;31365;48.858;8.530;2024-01-16T07:14:49;6.57;;;4.60;;
45650;SDS011;31365;48.858;8.530;2024-01-16T07:17:19;5.00;;;3.60;;
45650;SDS011;31365;48.858;8.530;2024-01-16T07:19:47;6.83;;;4.17;;
45650;SDS011;31365;48.858;8.530;2024-01-16T07:22:15;6.17;;;4.47;;
45650;SDS011;31365;48.858;8.530;2024-01-16T07:24:43;7.87;;;5.17;;
45650;SDS011;31365;48.858;8.530;2024-01-16T07:27:11;6.47;;;4.70;;
45650;SDS011;31365;48.858;8.530;2024-01-16T07:29:40;7.13;;;5.03;;
45650;SDS011;31365;48.858;8.530;2024-01-16T07:32:09;7.73;;;4.97;;
45650;SDS011;31365;48.858;8.530;2024-01-16T07:34:39;10.33;;;7.63;;
45650;SDS011;31365;48.858;8.530;2024-01-16T07:37:07;12.67;;;7.80;;
45650;SDS011;31365;48.858;8.530;2024-01-16T07:39:36;10.87;;;7.13;;
45650;SDS011;31365;48.858;8.530;2024-01-16T07:42:04;9.43;;;6.43;;
45650;SDS011;31365;48.858;8.530;2024-01-16T07:44:32;8.63;;;6.87;;
45650;SDS011;31365;48.858;8.530;2024-01-16T07:47:00;7.90;;;5.10;;
45650;SDS011;31365;48.858;8.530;2024-01-16T07:49:30;5.63;;;4.37;;
45650;SDS011;31365;48.858;8.530;2024-01-16T07:51:59;4.37;;;3.40;;
45650;SDS011;31365;48.858;8.530;2024-01-16T07:54:28;4.80;;;3.47;;
45650;SDS011;31365;48.858;8.530;2024-01-16T07:56:57;5.30;;;3.70;;
45650;SDS011;31365;48.858;8.530;2024-01-16T07:59:25;6.83;;;4.43;;
45650;SDS011;31365;48.858;8.530;2024-01-16T08:01:54;7.00;;;3.50;;
45650;SDS011;31365;48.858;8.530;2024-01-16T08:04:23;5.43;;;3.70;;
45650;SDS011;31365;48.858;8.530;2024-01-16T08:06:52;4.40;;;3.50;;
45650;SDS011;31365;48.858;8.530;2024-01-16T08:09:22;4.77;;;3.17;;
45650;SDS011;31365;48.858;8.530;2024-01-16T08:11:50;3.77;;;3.37;;
45650;SDS011;31365;48.858;8.530;2024-01-16T08:14:18;4.97;;;3.70;;
45650;SDS011;31365;48.858;8.530;2024-01-16T08:16:46;6.30;;;3.90;;
45650;SDS011;31365;48.858;8.530;2024-01-16T08:19:15;3.23;;;2.90;;
45650;SDS011;31365;48.858;8.530;2024-01-16T08:21:43;4.90;;;2.83;;
45650;SDS011;31365;48.858;8.530;2024-01-16T08:24:11;6.07;;;3.70;;
45650;SDS011;31365;48.858;8.530;2024-01-16T08:26:41;4.33;;;3.53;;
45650;SDS011;31365;48.858;8.530;2024-01-16T08:29:09;4.53;;;3.00;;
45650;SDS011;31365;48.858;8.530;2024-01-16T08:31:37;2.83;;;2.60;;
45650;SDS011;31365;48.858;8.530;2024-01-16T08:34:06;5.57;;;3.00;;
45650;SDS011;31365;48.858;8.530;2024-01-16T08:36:34;4.27;;;3.50;;
45650;SDS011;31365;48.858;8.530;2024-01-16T08:39:04;9.63;;;4.87;;
45650;SDS011;31365;48.858;8.530;2024-01-16T08:41:32;6.07;;;3.93;;
45650;SDS011;31365;48.858;8.530;2024-01-16T08:44:02;4.87;;;3.47;;
45650;SDS011;31365;48.858;8.530;2024-01-16T08:46:31;6.63;;;3.50;;
45650;SDS011;31365;48.858;8.530;2024-01-16T08:48:59;5.50;;;3.90;;
45650;SDS011;31365;48.858;8.530;2024-01-16T08:51:28;3.77;;;3.20;;
45650;SDS011;31365;48.858;8.530;2024-01-16T08:53:56;5.73;;;3.93;;
45650;SDS011;31365;48.858;8.530;2024-01-16T08:56:24;4.27;;;3.60;;
45650;SDS011;31365;48.858;8.530;2024-01-16T08:58:52;5.27;;;3.67;;
45650;SDS011;31365;48.858;8.530;2024-01-16T09:01:22;4.57;;;3.40;;
45650;SDS011;31365;48.858;8.530;2024-01-16T09:03:50;4.07;;;3.60;;
45650;SDS011;31365;48.858;8.530;2024-01-16T09:06:19;6.60;;;4.07;;
45650;SDS011;31365;48.858;8.530;2024-01-16T09:08:48;4.63;;;3.37;;
45650;SDS011;31365;48.858;8.530;2024-01-16T09:11:16;4.50;;;3.20;;
45650;SDS011;31365;48.858;8.530;2024-01-16T09:13:44;3.10;;;2.67;;
45650;SDS011;31365;48.858;8.530;2024-01-16T09:16:12;4.20;;;2.90;;
45650;SDS011;31365;48.858;8.530;2024-01-16T09:18:42;3.57;;;2.67;;
45650;SDS011;31365;48.858;8.530;2024-01-16T09:21:11;3.63;;;2.60;;
45650;SDS011;31365;48.858;8.530;2024-01-16T09:23:39;3.90;;;2.63;;
45650;SDS011;31365;48.858;8.530;2024-01-16T09:26:07;4.93;;;2.57;;
45650;SDS011;31365;48.858;8.530;2024-01-16T09:28:35;4.90;;;2.20;;
45650;SDS011;31365;48.858;8.530;2024-01-16T09:31:05;4.73;;;2.63;;
45650;SDS011;31365;48.858;8.530;2024-01-16T09:33:34;2.80;;;2.50;;
45650;SDS011;31365;48.858;8.530;2024-01-16T09:36:03;4.07;;;2.80;;
45650;SDS011;31365;48.858;8.530;2024-01-16T09:38:32;2.67;;;2.43;;
45650;SDS011;31365;48.858;8.530;2024-01-16T09:41:01;5.90;;;2.70;;
45650;SDS011;31365;48.858;8.530;2024-01-16T09:43:29;2.97;;;2.47;;
45650;SDS011;31365;48.858;8.530;2024-01-16T09:46:00;4.83;;;2.70;;
45650;SDS011;31365;48.858;8.530;2024-01-16T09:48:31;4.37;;;3.10;;
45650;SDS011;31365;48.858;8.530;2024-01-16T09:51:00;4.00;;;3.23;;
45650;SDS011;31365;48.858;8.530;2024-01-16T09:53:30;7.53;;;3.87;;
45650;SDS011;31365;48.858;8.530;2024-01-16T09:55:59;6.63;;;4.30;;
45650;SDS011;31365;48.858;8.530;2024-01-16T09:58:33;6.60;;;4.10;;
45650;SDS011;31365;48.858;8.530;2024-01-16T10:01:04;3.80;;;3.20;;
45650;SDS011;31365;48.858;8.530;2024-01-16T10:03:33;4.83;;;3.27;;
45650;SDS011;31365;48.858;8.530;2024-01-16T10:06:03;3.87;;;2.90;;
45650;SDS011;31365;48.858;8.530;2024-01-16T10:08:35;4.83;;;2.90;;
45650;SDS011;31365;48.858;8.530;2024-01-16T10:11:05;4.20;;;2.70;;
45650;SDS011;31365;48.858;8.530;2024-01-16T10:13:35;3.60;;;2.30;;
45650;SDS011;31365;48.858;8.530;2024-01-16T10:16:06;3.43;;;2.73;;
45650;SDS011;31365;48.858;8.530;2024-01-16T10:18:35;2.37;;;2.03;;
45650;SDS011;31365;48.858;8.530;2024-01-16T10:21:04;2.83;;;2.03;;
45650;SDS011;31365;48.858;8.530;2024-01-16T10:23:50;4.07;;;2.40;;
45650;SDS011;31365;48.858;8.530;2024-01-16T10:26:18;4.53;;;2.57;;
45650;SDS011;31365;48.858;8.530;2024-01-16T10:28:49;5.03;;;2.30;;
45650;SDS011;31365;48.858;8.530;2024-01-16T10:31:17;3.10;;;2.63;;
45650;SDS011;31365;48.858;8.530;2024-01-16T10:33:45;3.30;;;2.83;;
45650;SDS011;31365;48.858;8.530;2024-01-16T10:36:14;5.70;;;3.63;;
45650;SDS011;31365;48.858;8.530;2024-01-16T10:38:46;4.47;;;2.53;;
45650;SDS011;31365;48.858;8.530;2024-01-16T10:41:19;3.77;;;2.20;;
45650;SDS011;31365;48.858;8.530;2024-01-16T10:43:55;5.57;;;3.53;;
45650;SDS011;31365;48.858;8.530;2024-01-16T10:46:33;3.83;;;3.10;;
45650;SDS011;31365;48.858;8.530;2024-01-16T10:49:02;2.80;;;2.10;;
45650;SDS011;31365;48.858;8.530;2024-01-16T10:51:32;3.37;;;2.30;;
45650;SDS011;31365;48.858;8.530;2024-01-16T10:54:02;5.27;;;2.70;;
45650;SDS011;31365;48.858;8.530;2024-01-16T10:56:33;4.17;;;2.40;;
45650;SDS011;31365;48.858;8.530;2024-01-16T10:59:05;2.93;;;2.20;;
45650;SDS011;31365;48.858;8.530;2024-01-16T11:01:44;3.57;;;2.33;;
45650;SDS011;31365;48.858;8.530;2024-01-16T11:04:19;2.80;;;2.43;;
45650;SDS011;31365;48.858;8.530;2024-01-16T11:06:50;2.97;;;2.63;;
45650;SDS011;31365;48.858;8.530;2024-01-16T11:09:20;4.63;;;2.50;;
45650;SDS011;31365;48.858;8.530;2024-01-16T11:11:50;6.23;;;2.60;;
45650;SDS011;31365;48.858;8.530;2024-01-16T11:14:23;2.50;;;2.00;;
45650;SDS011;31365;48.858;8.530;2024-01-16T11:16:54;3.23;;;2.00;;
45650;SDS011;31365;48.858;8.530;2024-01-16T11:19:27;3.93;;;1.90;;
45650;SDS011;31365;48.858;8.530;2024-01-16T11:22:16;3.30;;;2.20;;
45650;SDS011;31365;48.858;8.530;2024-01-16T11:24:49;3.97;;;2.53;;
45650;SDS011;31365;48.858;8.530;2024-01-16T11:27:38;4.40;;;2.90;;
45650;SDS011;31365;48.858;8.530;2024-01-16T11:30:08;3.27;;;2.37;;
45650;SDS011;31365;48.858;8.530;2024-01-16T11:32:39;3.23;;;2.40;;
45650;SDS011;31365;48.858;8.530;2024-01-16T11:35:09;4.53;;;2.53;;
45650;SDS011;31365;48.858;8.530;2024-01-16T11:37:39;2.87;;;2.20;;
45650;SDS011;31365;48.858;8.530;2024-01-16T11:40:22;4.47;;;2.50;;
45650;SDS011;31365;48.858;8.530;2024-01-16T11:42:54;3.37;;;2.00;;
45650;SDS011;31365;48.858;8.530;2024-01-16T11:48:16;2.23;;;1.67;;
45650;SDS011;31365;48.858;8.530;2024-01-16T11:50:46;3.23;;;2.00;;
45650;SDS011;31365;48.858;8.530;2024-01-16T11:53:34;2.63;;;1.57;;
45650;SDS011;31365;48.858;8.530;2024-01-16T11:56:26;3.03;;;1.97;;
45650;SDS011;31365;48.858;8.530;2024-01-16T11:59:47;2.90;;;1.87;;
45650;SDS011;31365;48.858;8.530;2024-01-16T12:02:29;1.67;;;1.33;;
45650;SDS011;31365;48.858;8.530;2024-01-16T12:05:14;4.77;;;3.17;;
45650;SDS011;31365;48.858;8.530;2024-01-16T12:07:44;4.50;;;2.40;;
45650;SDS011;31365;48.858;8.530;2024-01-16T12:10:16;3.87;;;1.90;;
45650;SDS011;31365;48.858;8.530;2024-01-16T12:12:45;3.23;;;1.83;;
45650;SDS011;31365;48.858;8.530;2024-01-16T12:15:17;2.23;;;1.70;;
45650;SDS011;31365;48.858;8.530;2024-01-16T12:17:53;3.42;;;1.65;;
45650;SDS011;31365;48.858;8.530;2024-01-16T12:20:23;2.15;;;1.40;;
45650;SDS011;31365;48.858;8.530;2024-01-16T12:22:55;1.85;;;1.75;;
45650;SDS011;31365;48.858;8.530;2024-01-16T12:25:25;3.60;;;1.60;;
45650;SDS011;31365;48.858;8.530;2024-01-16T12:28:14;9.48;;;6.25;;
45650;SDS011;31365;48.858;8.530;2024-01-16T12:30:59;8.88;;;5.03;;
45650;SDS011;31365;48.858;8.530;2024-01-16T12:33:29;4.18;;;3.65;;
45650;SDS011;31365;48.858;8.530;2024-01-16T12:36:01;3.92;;;3.50;;
45650;SDS011;31365;48.858;8.530;2024-01-16T12:38:32;5.57;;;3.63;;
45650;SDS011;31365;48.858;8.530;2024-01-16T12:41:01;3.83;;;3.53;;
45650;SDS011;31365;48.858;8.530;2024-01-16T12:43:36;10.87;;;7.10;;
45650;SDS011;31365;48.858;8.530;2024-01-16T12:46:07;6.47;;;3.53;;
45650;SDS011;31365;48.858;8.530;2024-01-16T12:48:38;3.57;;;3.07;;
45650;SDS011;31365;48.858;8.530;2024-01-16T12:51:22;11.23;;;3.17;;
45650;SDS011;31365;48.858;8.530;2024-01-16T12:53:50;3.07;;;2.87;;
45650;SDS011;31365;48.858;8.530;2024-01-16T12:56:18;4.13;;;2.77;;
45650;SDS011;31365;48.858;8.530;2024-01-16T12:59:08;4.53;;;2.73;;
45650;SDS011;31365;48.858;8.530;2024-01-16T13:01:40;3.70;;;2.07;;
45650;SDS011;31365;48.858;8.530;2024-01-16T13:04:11;3.80;;;2.53;;
45650;SDS011;31365;48.858;8.530;2024-01-16T13:06:42;2.83;;;2.57;;
45650;SDS011;31365;48.858;8.530;2024-01-16T13:09:13;6.33;;;2.63;;
45650;SDS011;31365;48.858;8.530;2024-01-16T13:11:50;2.50;;;2.17;;
45650;SDS011;31365;48.858;8.530;2024-01-16T13:14:22;3.73;;;2.30;;
45650;SDS011;31365;48.858;8.530;2024-01-16T13:16:52;4.67;;;2.20;;
45650;SDS011;31365;48.858;8.530;2024-01-16T13:19:22;3.30;;;3.00;;
45650;SDS011;31365;48.858;8.530;2024-01-16T13:21:52;5.20;;;2.90;;
45650;SDS011;31365;48.858;8.530;2024-01-16T13:24:21;3.70;;;2.20;;
45650;SDS011;31365;48.858;8.530;2024-01-16T13:26:50;7.07;;;2.30;;
45650;SDS011;31365;48.858;8.530;2024-01-16T13:29:19;5.03;;;2.20;;
45650;SDS011;31365;48.858;8.530;2024-01-16T13:31:47;3.27;;;2.33;;
45650;SDS011;31365;48.858;8.530;2024-01-16T13:34:22;6.23;;;2.50;;
45650;SDS011;31365;48.858;8.530;2024-01-16T13:36:52;6.30;;;2.90;;
45650;SDS011;31365;48.858;8.530;2024-01-16T13:39:42;4.77;;;2.17;;
45650;SDS011;31365;48.858;8.530;2024-01-16T13:42:11;6.40;;;3.80;;
45650;SDS011;31365;48.858;8.530;2024-01-16T13:44:39;10.20;;;5.70;;
45650;SDS011;31365;48.858;8.530;2024-01-16T13:47:07;7.27;;;4.10;;
45650;SDS011;31365;48.858;8.530;2024-01-16T13:49:42;11.80;;;2.83;;
45650;SDS011;31365;48.858;8.530;2024-01-16T13:52:11;13.73;;;3.40;;
45650;SDS011;31365;48.858;8.530;2024-01-16T13:54:39;8.13;;;2.80;;
45650;SDS011;31365;48.858;8.530;2024-01-16T13:57:08;5.03;;;2.63;;
45650;SDS011;31365;48.858;8.530;2024-01-16T13:59:39;2.50;;;2.27;;
45650;SDS011;31365;48.858;8.530;2024-01-16T14:02:08;10.10;;;2.60;;
45650;SDS011;31365;48.858;8.530;2024-01-16T14:04:36;3.53;;;2.37;;
45650;SDS011;31365;48.858;8.530;2024-01-16T14:07:06;16.90;;;10.57;;
45650;SDS011;31365;48.858;8.530;2024-01-16T14:09:39;5.00;;;3.17;;
45650;SDS011;31365;48.858;8.530;2024-01-16T14:12:11;4.97;;;3.70;;
45650;SDS011;31365;48.858;8.530;2024-01-16T14:14:41;6.87;;;3.17;;
45650;SDS011;31365;48.858;8.530;2024-01-16T14:17:10;7.40;;;2.63;;
45650;SDS011;31365;48.858;8.530;2024-01-16T14:19:38;6.00;;;2.60;;
45650;SDS011;31365;48.858;8.530;2024-01-16T14:22:07;7.67;;;2.90;;
45650;SDS011;31365;48.858;8.530;2024-01-16T14:24:36;9.10;;;4.63;;
45650;SDS011;31365;48.858;8.530;2024-01-16T14:27:04;8.10;;;3.73;;
45650;SDS011;31365;48.858;8.530;2024-01-16T14:29:33;3.67;;;3.07;;
45650;SDS011;31365;48.858;8.530;2024-01-16T14:32:03;3.80;;;3.10;;
45650;SDS011;31365;48.858;8.530;2024-01-16T14:34:32;4.27;;;2.93;;
45650;SDS011;31365;48.858;8.530;2024-01-16T14:37:00;5.50;;;3.83;;
45650;SDS011;31365;48.858;8.530;2024-01-16T14:39:30;5.07;;;2.60;;
45650;SDS011;31365;48.858;8.530;2024-01-16T14:41:58;5.40;;;3.47;;
45650;SDS011;31365;48.858;8.530;2024-01-16T14:44:26;5.13;;;3.50;;
45650;SDS011;31365;48.858;8.530;2024-01-16T14:46:55;5.60;;;3.20;;
45650;SDS011;31365;48.858;8.530;2024-01-16T14:49:23;6.47;;;5.53;;
45650;SDS011;31365;48.858;8.530;2024-01-16T14:51:57;9.33;;;6.10;;
45650;SDS011;31365;48.858;8.530;2024-01-16T14:54:27;26.23;;;16.33;;
45650;SDS011;31365;48.858;8.530;2024-01-16T14:56:57;40.17;;;23.93;;
45650;SDS011;31365;48.858;8.530;2024-01-16T14:59:25;20.73;;;13.07;;
45650;SDS011;31365;48.858;8.530;2024-01-16T15:01:53;15.57;;;8.40;;
45650;SDS011;31365;48.858;8.530;2024-01-16T15:04:22;14.23;;;10.53;;